Norwegian Star — C6FR3 — position and weather

sailwx.info

Track history (hours):
 
Tides and Currents Weather Stations Pressure Air Temp Water Temp Dewpoint Dewpoint Depression Visibility Wind Speed Wind Dir Waves Ship Positions

Norwegian Star

Operator: Norwegian Cruise Line

Last reported at 2017-Feb-24 07:08 UTC. Time now 2017-Feb-24 08:20 UTC.
Position S 27°51' E 153°50'.

Type: Passenger vessel. MMSI: 311082000.

Date/timePositionNaut miles runAvg speedWind from/ knotsBaromVisibWave heightAir tempDewpointWater temp
2017-Feb-24 07:08S 27°51' E 153°50'29518.9
2017-Feb-23 15:33S 32°40' E 152°43'2319.5
2017-Feb-23 14:23S 32°58' E 152°27'1619.2
2017-Feb-23 13:33S 33°11' E 152°16'4017.9
2017-Feb-23 11:19S 33°44' E 151°48'1317.4
2017-Feb-23 10:33S 33°55' E 151°40'1616.4
2017-Feb-23 09:34S 34°07' E 151°27'1716.9
2017-Feb-23 08:33S 34°16' E 151°09'1714.9
2017-Feb-23 07:25S 34°28' E 150°55'  
2017-Feb-18 09:33S 36°18' E 174°58'1010.2
2017-Feb-18 08:33S 36°28' E 174°60'1010.1
2017-Feb-18 07:33S 36°38' E 174°56'1010.4
2017-Feb-18 06:33S 36°47' E 174°49'4 4.4
2017-Feb-18 05:33S 36°51' E 174°46'0 0.0
2017-Feb-18 04:33S 36°51' E 174°46'0 0.0
2017-Feb-18 03:33S 36°51' E 174°46'0 0.0
2017-Feb-18 02:33S 36°51' E 174°46'0 0.0
2017-Feb-18 01:33S 36°51' E 174°46'0 0.0
2017-Feb-18 00:33S 36°51' E 174°46'0 0.0
2017-Feb-17 23:33S 36°51' E 174°46'0 0.0
2017-Feb-17 22:27S 36°51' E 174°46'0 0.0
2017-Feb-17 21:27S 36°51' E 174°46'0 0.0
2017-Feb-17 20:33S 36°51' E 174°46'0 0.4
2017-Feb-17 19:33S 36°50' E 174°47'8 7.7
2017-Feb-17 18:33S 36°44' E 174°51'1615.6
2017-Feb-17 17:33S 36°29' E 174°59'  
Track history (hours):
 
Tides and Currents Weather Stations Pressure Air Temp Water Temp Dewpoint Dewpoint Depression Visibility Wind Speed Wind Dir Waves Ship Positions

Norwegian Star

Operator: Norwegian Cruise Line

Last reported at 2017-Feb-24 07:08 UTC. Time now 2017-Feb-24 08:20 UTC.
Position S 27°51' E 153°50'.

Type: Passenger vessel. MMSI: 311082000.

Date/timePositionNaut miles runAvg speedWind from/ knotsBaromVisibWave heightAir tempDewpointWater temp
2017-Feb-24 07:08S 27°51' E 153°50'29518.9
2017-Feb-23 15:33S 32°40' E 152°43'2319.5
2017-Feb-23 14:23S 32°58' E 152°27'1619.2
2017-Feb-23 13:33S 33°11' E 152°16'4017.9
2017-Feb-23 11:19S 33°44' E 151°48'1317.4
2017-Feb-23 10:33S 33°55' E 151°40'1616.4
2017-Feb-23 09:34S 34°07' E 151°27'1716.9
2017-Feb-23 08:33S 34°16' E 151°09'1714.9
2017-Feb-23 07:25S 34°28' E 150°55'  
2017-Feb-18 09:33S 36°18' E 174°58'1010.2
2017-Feb-18 08:33S 36°28' E 174°60'1010.1
2017-Feb-18 07:33S 36°38' E 174°56'1010.4
2017-Feb-18 06:33S 36°47' E 174°49'4 4.4
2017-Feb-18 05:33S 36°51' E 174°46'0 0.0
2017-Feb-18 04:33S 36°51' E 174°46'0 0.0
2017-Feb-18 03:33S 36°51' E 174°46'0 0.0
2017-Feb-18 02:33S 36°51' E 174°46'0 0.0
2017-Feb-18 01:33S 36°51' E 174°46'0 0.0
2017-Feb-18 00:33S 36°51' E 174°46'0 0.0
2017-Feb-17 23:33S 36°51' E 174°46'0 0.0
2017-Feb-17 22:27S 36°51' E 174°46'0 0.0
2017-Feb-17 21:27S 36°51' E 174°46'0 0.0
2017-Feb-17 20:33S 36°51' E 174°46'0 0.4
2017-Feb-17 19:33S 36°50' E 174°47'8 7.7
2017-Feb-17 18:33S 36°44' E 174°51'1615.6
2017-Feb-17 17:33S 36°29' E 174°59'  

Dump ship's entire track history